sensor_id;sensor_type;location;lat;lon;timestamp;pressure;altitude;pressure_sealevel;temperature;humidity
7058;BME280;3570;43.080;25.628;2022-08-19T00:00:52;-20168.28;;;24.65;81.13
7058;BME280;3570;43.080;25.628;2022-08-19T00:03:36;-20170.72;;;24.74;81.97
7058;BME280;3570;43.080;25.628;2022-08-19T00:06:20;-20160.19;;;24.37;84.28
7058;BME280;3570;43.080;25.628;2022-08-19T00:09:07;-20167.41;;;24.62;83.98
7058;BME280;3570;43.080;25.628;2022-08-19T00:11:52;-20172.47;;;24.80;82.62
7058;BME280;3570;43.080;25.628;2022-08-19T00:14:41;-20172.59;;;24.80;83.37
7058;BME280;3570;43.080;25.628;2022-08-19T00:17:25;-20166.81;;;24.60;83.58
7058;BME280;3570;43.080;25.628;2022-08-19T00:20:12;-20152.09;;;24.09;86.23
7058;BME280;3570;43.080;25.628;2022-08-19T00:22:57;-20143.72;;;23.80;88.56
7058;BME280;3570;43.080;25.628;2022-08-19T00:25:42;-20143.00;;;23.77;88.88
7058;BME280;3570;43.080;25.628;2022-08-19T00:28:26;-20135.03;;;23.50;90.25
7058;BME280;3570;43.080;25.628;2022-08-19T00:31:10;-20139.09;;;23.64;89.20
7058;BME280;3570;43.080;25.628;2022-08-19T00:33:54;-20126.66;;;23.20;90.30
7058;BME280;3570;43.080;25.628;2022-08-19T00:36:39;-20127.81;;;23.24;91.45
7058;BME280;3570;43.080;25.628;2022-08-19T00:39:24;-20123.91;;;23.11;92.10
7058;BME280;3570;43.080;25.628;2022-08-19T00:42:07;-20118.84;;;22.93;93.04
7058;BME280;3570;43.080;25.628;2022-08-19T00:44:51;-20110.75;;;22.65;94.06
7058;BME280;3570;43.080;25.628;2022-08-19T00:47:35;-20111.47;;;22.68;94.68
7058;BME280;3570;43.080;25.628;2022-08-19T00:50:21;-20110.63;;;22.65;95.92
7058;BME280;3570;43.080;25.628;2022-08-19T00:53:06;-20121.16;;;23.01;94.42
7058;BME280;3570;43.080;25.628;2022-08-19T00:55:52;-20143.88;;;23.80;89.64
7058;BME280;3570;43.080;25.628;2022-08-19T00:58:37;-20155.56;;;24.21;87.11
7058;BME280;3570;43.080;25.628;2022-08-19T01:01:21;-20161.91;;;24.43;85.64
7058;BME280;3570;43.080;25.628;2022-08-19T01:04:05;-20157.59;;;24.28;86.14
7058;BME280;3570;43.080;25.628;2022-08-19T01:06:49;-20161.19;;;24.41;85.78
7058;BME280;3570;43.080;25.628;2022-08-19T01:09:33;-20160.03;;;24.37;86.10
7058;BME280;3570;43.080;25.628;2022-08-19T01:12:18;-20162.06;;;24.44;85.30
7058;BME280;3570;43.080;25.628;2022-08-19T01:15:04;-20153.69;;;24.14;85.34
7058;BME280;3570;43.080;25.628;2022-08-19T01:17:49;-20158.75;;;24.32;85.62
7058;BME280;3570;43.080;25.628;2022-08-19T01:20:34;-20140.53;;;23.69;88.71
7058;BME280;3570;43.080;25.628;2022-08-19T01:23:18;-20131.00;;;23.35;90.87
7058;BME280;3570;43.080;25.628;2022-08-19T01:26:13;-20116.81;;;22.86;93.88
7058;BME280;3570;43.080;25.628;2022-08-19T01:28:58;-20109.88;;;22.62;95.11
7058;BME280;3570;43.080;25.628;2022-08-19T01:31:44;-20112.50;;;22.71;94.93
7058;BME280;3570;43.080;25.628;2022-08-19T01:34:28;-20120.16;;;22.98;95.42
7058;BME280;3570;43.080;25.628;2022-08-19T01:37:13;-20133.03;;;23.43;92.48
7058;BME280;3570;43.080;25.628;2022-08-19T01:39:58;-20136.63;;;23.55;91.64
7058;BME280;3570;43.080;25.628;2022-08-19T01:42:42;-20139.66;;;23.66;89.89
7058;BME280;3570;43.080;25.628;2022-08-19T01:45:27;-20145.44;;;23.86;88.68
7058;BME280;3570;43.080;25.628;2022-08-19T01:48:13;-20148.91;;;23.98;87.15
7058;BME280;3570;43.080;25.628;2022-08-19T01:50:57;-20148.91;;;23.98;87.52
7058;BME280;3570;43.080;25.628;2022-08-19T01:53:42;-20150.94;;;24.05;87.34
7058;BME280;3570;43.080;25.628;2022-08-19T01:56:26;-20157.00;;;24.26;87.35
7058;BME280;3570;43.080;25.628;2022-08-19T01:59:14;-20159.75;;;24.36;86.55
7058;BME280;3570;43.080;25.628;2022-08-19T02:01:59;-20158.88;;;24.33;86.90
7058;BME280;3570;43.080;25.628;2022-08-19T02:04:43;-20154.13;;;24.16;86.63
7058;BME280;3570;43.080;25.628;2022-08-19T02:07:29;-20157.44;;;24.27;86.91
7058;BME280;3570;43.080;25.628;2022-08-19T02:10:19;-20152.69;;;24.11;87.56
7058;BME280;3570;43.080;25.628;2022-08-19T02:13:03;-20161.19;;;24.41;87.07
7058;BME280;3570;43.080;25.628;2022-08-19T02:15:47;-20159.47;;;24.35;87.23
7058;BME280;3570;43.080;25.628;2022-08-19T02:18:31;-20133.88;;;23.46;89.71
7058;BME280;3570;43.080;25.628;2022-08-19T02:21:16;-20123.19;;;23.08;93.58
7058;BME280;3570;43.080;25.628;2022-08-19T02:24:01;-20105.53;;;22.47;97.09
7058;BME280;3570;43.080;25.628;2022-08-19T02:26:46;-20092.25;;;22.01;99.97
7058;BME280;3570;43.080;25.628;2022-08-19T02:29:29;-20083.13;;;21.69;100.00
7058;BME280;3570;43.080;25.628;2022-08-19T02:32:14;-20086.44;;;21.81;100.00
7058;BME280;3570;43.080;25.628;2022-08-19T02:35:02;-20094.84;;;22.10;100.00
7058;BME280;3570;43.080;25.628;2022-08-19T02:37:47;-20085.28;;;21.77;100.00
7058;BME280;3570;43.080;25.628;2022-08-19T02:40:51;-20073.72;;;21.36;100.00
7058;BME280;3570;43.080;25.628;2022-08-19T02:43:37;-20069.38;;;21.21;100.00
7058;BME280;3570;43.080;25.628;2022-08-19T02:46:25;-20078.34;;;21.52;100.00
7058;BME280;3570;43.080;25.628;2022-08-19T02:49:10;-20095.13;;;22.11;100.00
7058;BME280;3570;43.080;25.628;2022-08-19T02:51:54;-20095.72;;;22.13;100.00
7058;BME280;3570;43.080;25.628;2022-08-19T02:54:38;-20118.13;;;22.91;98.36
7058;BME280;3570;43.080;25.628;2022-08-19T02:57:22;-20124.34;;;23.12;98.34
7058;BME280;3570;43.080;25.628;2022-08-19T03:00:07;-20131.88;;;23.39;96.95
7058;BME280;3570;43.080;25.628;2022-08-19T03:02:53;-20135.91;;;23.53;95.87
7058;BME280;3570;43.080;25.628;2022-08-19T03:05:38;-20139.97;;;23.67;94.77
7058;BME280;3570;43.080;25.628;2022-08-19T03:08:23;-20135.47;;;23.51;94.39
7058;BME280;3570;43.080;25.628;2022-08-19T03:11:27;-20146.75;;;23.90;92.76
7058;BME280;3570;43.080;25.628;2022-08-19T03:14:11;-20150.50;;;24.03;91.90
7058;BME280;3570;43.080;25.628;2022-08-19T03:16:56;-20150.78;;;24.04;91.61
7058;BME280;3570;43.080;25.628;2022-08-19T03:19:41;-20145.59;;;23.86;92.03
7058;BME280;3570;43.080;25.628;2022-08-19T03:22:25;-20133.31;;;23.44;94.42
7058;BME280;3570;43.080;25.628;2022-08-19T03:25:09;-20124.94;;;23.14;95.77
7058;BME280;3570;43.080;25.628;2022-08-19T03:27:54;-20124.06;;;23.11;96.53
7058;BME280;3570;43.080;25.628;2022-08-19T03:30:39;-20128.09;;;23.25;96.34
7058;BME280;3570;43.080;25.628;2022-08-19T03:33:26;-20121.47;;;23.02;96.55
7058;BME280;3570;43.080;25.628;2022-08-19T03:36:11;-20096.59;;;22.16;100.00
7058;BME280;3570;43.080;25.628;2022-08-19T03:38:58;-20082.69;;;21.68;100.00
7058;BME280;3570;43.080;25.628;2022-08-19T03:41:44;-20074.28;;;21.38;100.00
7058;BME280;3570;43.080;25.628;2022-08-19T03:44:29;-20070.66;;;21.26;100.00
7058;BME280;3570;43.080;25.628;2022-08-19T03:47:13;-20066.03;;;21.10;100.00
7058;BME280;3570;43.080;25.628;2022-08-19T03:50:00;-20059.50;;;20.87;100.00
7058;BME280;3570;43.080;25.628;2022-08-19T03:52:51;-20064.88;;;21.06;100.00
7058;BME280;3570;43.080;25.628;2022-08-19T03:55:40;-20076.31;;;21.45;100.00
7058;BME280;3570;43.080;25.628;2022-08-19T03:58:26;-20095.13;;;22.11;100.00
7058;BME280;3570;43.080;25.628;2022-08-19T04:01:14;-20115.38;;;22.81;100.00
7058;BME280;3570;43.080;25.628;2022-08-19T04:03:59;-20130.13;;;23.32;99.96
7058;BME280;3570;43.080;25.628;2022-08-19T04:06:44;-20140.25;;;23.68;97.46
7058;BME280;3570;43.080;25.628;2022-08-19T04:09:32;-20146.59;;;23.90;95.21
7058;BME280;3570;43.080;25.628;2022-08-19T04:12:16;-20147.03;;;23.91;93.89
7058;BME280;3570;43.080;25.628;2022-08-19T04:15:00;-20150.50;;;24.03;92.96
7058;BME280;3570;43.080;25.628;2022-08-19T04:17:44;-20151.22;;;24.06;93.38
7058;BME280;3570;43.080;25.628;2022-08-19T04:20:28;-20153.53;;;24.14;92.53
7058;BME280;3570;43.080;25.628;2022-08-19T04:23:13;-20153.53;;;24.14;91.90
7058;BME280;3570;43.080;25.628;2022-08-19T04:25:58;-20160.31;;;24.38;90.50
7058;BME280;3570;43.080;25.628;2022-08-19T04:28:43;-20156.13;;;24.23;91.48
7058;BME280;3570;43.080;25.628;2022-08-19T04:31:30;-20153.69;;;24.14;92.03
7058;BME280;3570;43.080;25.628;2022-08-19T04:34:16;-20151.53;;;24.07;92.03
7058;BME280;3570;43.080;25.628;2022-08-19T04:37:01;-20146.47;;;23.89;91.80
7058;BME280;3570;43.080;25.628;2022-08-19T04:39:45;-20154.13;;;24.16;91.87
7058;BME280;3570;43.080;25.628;2022-08-19T04:42:48;-20156.13;;;24.23;90.69
7058;BME280;3570;43.080;25.628;2022-08-19T04:45:32;-20161.06;;;24.40;90.31
7058;BME280;3570;43.080;25.628;2022-08-19T04:48:15;-20162.63;;;24.46;89.61
7058;BME280;3570;43.080;25.628;2022-08-19T04:51:06;-20155.72;;;24.21;90.24
7058;BME280;3570;43.080;25.628;2022-08-19T04:53:52;-20147.47;;;23.93;90.62
7058;BME280;3570;43.080;25.628;2022-08-19T04:56:36;-20120.16;;;22.98;94.97
7058;BME280;3570;43.080;25.628;2022-08-19T04:59:21;-20106.69;;;22.51;100.00
7058;BME280;3570;43.080;25.628;2022-08-19T05:02:07;-20111.47;;;22.68;100.00
7058;BME280;3570;43.080;25.628;2022-08-19T05:04:57;-20117.56;;;22.89;100.00
7058;BME280;3570;43.080;25.628;2022-08-19T05:07:43;-20128.81;;;23.28;97.95
7058;BME280;3570;43.080;25.628;2022-08-19T05:10:28;-20132.88;;;23.42;95.71
7058;BME280;3570;43.080;25.628;2022-08-19T05:13:11;-20142.28;;;23.75;91.84
7058;BME280;3570;43.080;25.628;2022-08-19T05:15:57;-20154.56;;;24.17;89.11
7058;BME280;3570;43.080;25.628;2022-08-19T05:18:42;-20160.31;;;24.38;88.18
7058;BME280;3570;43.080;25.628;2022-08-19T05:21:45;-20160.47;;;24.38;87.47
7058;BME280;3570;43.080;25.628;2022-08-19T05:24:48;-20170.88;;;24.74;86.55
7058;BME280;3570;43.080;25.628;2022-08-19T05:27:32;-20169.28;;;24.69;85.23
7058;BME280;3570;43.080;25.628;2022-08-19T05:30:17;-20177.06;;;24.96;85.14
7058;BME280;3570;43.080;25.628;2022-08-19T05:33:01;-20184.44;;;25.22;84.08
7058;BME280;3570;43.080;25.628;2022-08-19T05:35:45;-20188.19;;;25.35;83.01
7058;BME280;3570;43.080;25.628;2022-08-19T05:38:29;-20190.06;;;25.41;83.06
7058;BME280;3570;43.080;25.628;2022-08-19T05:41:14;-20186.16;;;25.28;84.24
7058;BME280;3570;43.080;25.628;2022-08-19T05:44:04;-20192.22;;;25.49;82.47
7058;BME280;3570;43.080;25.628;2022-08-19T05:46:50;-20193.38;;;25.53;81.63
7058;BME280;3570;43.080;25.628;2022-08-19T05:49:37;-20195.25;;;25.59;81.63
7058;BME280;3570;43.080;25.628;2022-08-19T05:52:21;-20197.72;;;25.68;81.00
7058;BME280;3570;43.080;25.628;2022-08-19T05:55:06;-20195.53;;;25.60;80.63
7058;BME280;3570;43.080;25.628;2022-08-19T05:57:50;-20199.00;;;25.72;80.13
7058;BME280;3570;43.080;25.628;2022-08-19T06:00:36;-20198.88;;;25.72;80.19
7058;BME280;3570;43.080;25.628;2022-08-19T06:03:20;-20198.88;;;25.72;79.65
7058;BME280;3570;43.080;25.628;2022-08-19T06:06:05;-20203.47;;;25.88;78.10
7058;BME280;3570;43.080;25.628;2022-08-19T06:08:50;-20198.44;;;25.70;78.92
7058;BME280;3570;43.080;25.628;2022-08-19T06:11:37;-20203.47;;;25.88;78.02
7058;BME280;3570;43.080;25.628;2022-08-19T06:14:24;-20206.66;;;25.99;75.98
7058;BME280;3570;43.080;25.628;2022-08-19T06:17:09;-20191.94;;;25.48;77.54
7058;BME280;3570;43.080;25.628;2022-08-19T06:19:53;-20202.19;;;25.83;76.41
7058;BME280;3570;43.080;25.628;2022-08-19T06:22:42;-20206.94;;;26.00;76.91
7058;BME280;3570;43.080;25.628;2022-08-19T06:25:26;-20216.59;;;26.34;76.00
7058;BME280;3570;43.080;25.628;2022-08-19T06:28:10;-20212.28;;;26.19;74.99
7058;BME280;3570;43.080;25.628;2022-08-19T06:30:54;-20223.66;;;26.58;74.04
7058;BME280;3570;43.080;25.628;2022-08-19T06:33:38;-20230.56;;;26.82;74.58
7058;BME280;3570;43.080;25.628;2022-08-19T06:36:28;-20237.19;;;27.06;73.28
7058;BME280;3570;43.080;25.628;2022-08-19T06:39:25;-20232.31;;;26.88;73.63
7058;BME280;3570;43.080;25.628;2022-08-19T06:42:11;-20235.63;;;27.00;73.67
7058;BME280;3570;43.080;25.628;2022-08-19T06:44:59;-20239.78;;;27.15;72.56
7058;BME280;3570;43.080;25.628;2022-08-19T06:47:46;-20253.75;;;27.63;72.43
7058;BME280;3570;43.080;25.628;2022-08-19T06:50:32;-20258.22;;;27.79;71.72
7058;BME280;3570;43.080;25.628;2022-08-19T06:53:16;-20266.84;;;28.09;71.21
7058;BME280;3570;43.080;25.628;2022-08-19T06:56:02;-20275.19;;;28.38;70.03
7058;BME280;3570;43.080;25.628;2022-08-19T06:58:47;-20287.13;;;28.80;68.56
7058;BME280;3570;43.080;25.628;2022-08-19T07:01:41;-20289.56;;;28.89;67.65
7058;BME280;3570;43.080;25.628;2022-08-19T07:04:28;-20298.19;;;29.19;67.66
7058;BME280;3570;43.080;25.628;2022-08-19T07:07:15;-20303.38;;;29.37;66.55
7058;BME280;3570;43.080;25.628;2022-08-19T07:09:59;-20305.25;;;29.43;65.62
7058;BME280;3570;43.080;25.628;2022-08-19T07:12:43;-20314.59;;;29.76;65.73
7058;BME280;3570;43.080;25.628;2022-08-19T07:15:28;-20325.63;;;30.15;63.91
7058;BME280;3570;43.080;25.628;2022-08-19T07:18:12;-20335.25;;;30.48;62.32
7058;BME280;3570;43.080;25.628;2022-08-19T07:21:07;-20341.72;;;30.71;61.57
7058;BME280;3570;43.080;25.628;2022-08-19T07:23:51;-20341.56;;;30.71;60.58
7058;BME280;3570;43.080;25.628;2022-08-19T07:26:41;-20348.75;;;30.96;60.57
7058;BME280;3570;43.080;25.628;2022-08-19T07:29:27;-20352.19;;;31.08;58.96
7058;BME280;3570;43.080;25.628;2022-08-19T07:32:12;-20353.63;;;31.13;59.03
7058;BME280;3570;43.080;25.628;2022-08-19T07:34:56;-20357.19;;;31.25;58.16
7058;BME280;3570;43.080;25.628;2022-08-19T07:37:39;-20368.81;;;31.66;56.77
7058;BME280;3570;43.080;25.628;2022-08-19T07:40:27;-20368.97;;;31.67;55.78
7058;BME280;3570;43.080;25.628;2022-08-19T07:43:12;-20367.53;;;31.62;56.15
7058;BME280;3570;43.080;25.628;2022-08-19T07:45:56;-20369.69;;;31.69;56.58
7058;BME280;3570;43.080;25.628;2022-08-19T07:48:42;-20374.13;;;31.85;55.41
7058;BME280;3570;43.080;25.628;2022-08-19T07:51:30;-20379.56;;;32.04;55.29
7058;BME280;3570;43.080;25.628;2022-08-19T07:54:14;-20377.72;;;31.97;53.94
7058;BME280;3570;43.080;25.628;2022-08-19T07:56:58;-20370.25;;;31.71;53.94
7058;BME280;3570;43.080;25.628;2022-08-19T07:59:42;-20375.13;;;31.88;54.23
7058;BME280;3570;43.080;25.628;2022-08-19T08:02:26;-20365.66;;;31.55;55.53
7058;BME280;3570;43.080;25.628;2022-08-19T08:05:10;-20380.00;;;32.05;54.14
7058;BME280;3570;43.080;25.628;2022-08-19T08:08:13;-20390.44;;;32.42;52.81
7058;BME280;3570;43.080;25.628;2022-08-19T08:11:18;-20375.41;;;31.89;52.99
7058;BME280;3570;43.080;25.628;2022-08-19T08:14:03;-20376.13;;;31.92;53.62
7058;BME280;3570;43.080;25.628;2022-08-19T08:16:49;-20388.31;;;32.34;52.52
7058;BME280;3570;43.080;25.628;2022-08-19T08:19:35;-20396.31;;;32.63;51.22
7058;BME280;3570;43.080;25.628;2022-08-19T08:22:21;-20407.63;;;33.02;50.20
7058;BME280;3570;43.080;25.628;2022-08-19T08:25:24;-20415.50;;;33.30;49.76
7058;BME280;3570;43.080;25.628;2022-08-19T08:28:09;-20423.22;;;33.57;49.14
7058;BME280;3570;43.080;25.628;2022-08-19T08:30:54;-20423.50;;;33.58;48.38
7058;BME280;3570;43.080;25.628;2022-08-19T08:33:39;-20429.66;;;33.80;47.43
7058;BME280;3570;43.080;25.628;2022-08-19T08:36:25;-20429.53;;;33.79;46.06
7058;BME280;3570;43.080;25.628;2022-08-19T08:39:16;-20428.94;;;33.77;46.91
7058;BME280;3570;43.080;25.628;2022-08-19T08:42:26;-20437.97;;;34.09;47.02
7058;BME280;3570;43.080;25.628;2022-08-19T08:45:16;-20442.38;;;34.25;45.87
7058;BME280;3570;43.080;25.628;2022-08-19T08:48:11;-20450.53;;;34.53;43.73
7058;BME280;3570;43.080;25.628;2022-08-19T08:50:57;-20448.09;;;34.45;42.74
7058;BME280;3570;43.080;25.628;2022-08-19T08:53:43;-20460.97;;;34.90;43.56
7058;BME280;3570;43.080;25.628;2022-08-19T08:56:28;-20456.09;;;34.73;42.08
7058;BME280;3570;43.080;25.628;2022-08-19T08:59:34;-20457.25;;;34.77;40.99
7058;BME280;3570;43.080;25.628;2022-08-19T09:02:21;-20456.09;;;34.73;40.79
7058;BME280;3570;43.080;25.628;2022-08-19T09:05:06;-20457.97;;;34.79;41.33
7058;BME280;3570;43.080;25.628;2022-08-19T09:10:44;-20468.81;;;35.18;42.03
7058;BME280;3570;43.080;25.628;2022-08-19T09:14:01;-20478.94;;;35.53;40.19
7058;BME280;3570;43.080;25.628;2022-08-19T09:16:49;-20490.66;;;35.94;38.89
7058;BME280;3570;43.080;25.628;2022-08-19T09:19:50;-20508.47;;;36.57;37.17
7058;BME280;3570;43.080;25.628;2022-08-19T09:22:40;-20534.84;;;37.50;35.41
7058;BME280;3570;43.080;25.628;2022-08-19T09:25:27;-20551.06;;;38.08;33.66
7058;BME280;3570;43.080;25.628;2022-08-19T09:28:11;-20576.94;;;38.99;33.15
7058;BME280;3570;43.080;25.628;2022-08-19T09:30:55;-20583.75;;;39.23;32.58
7058;BME280;3570;43.080;25.628;2022-08-19T09:33:39;-20586.31;;;39.32;32.17
7058;BME280;3570;43.080;25.628;2022-08-19T09:36:27;-20595.53;;;39.65;31.90
7058;BME280;3570;43.080;25.628;2022-08-19T09:39:16;-20609.88;;;40.16;31.78
7058;BME280;3570;43.080;25.628;2022-08-19T09:42:00;-20613.84;;;40.30;31.31
7058;BME280;3570;43.080;25.628;2022-08-19T09:44:44;-20628.75;;;40.83;30.15
7058;BME280;3570;43.080;25.628;2022-08-19T09:47:28;-20615.28;;;40.35;30.53
7058;BME280;3570;43.080;25.628;2022-08-19T09:50:13;-20601.78;;;39.87;31.33
7058;BME280;3570;43.080;25.628;2022-08-19T09:52:57;-20614.28;;;40.31;30.20
7058;BME280;3570;43.080;25.628;2022-08-19T09:55:43;-20646.75;;;41.47;29.84
7058;BME280;3570;43.080;25.628;2022-08-19T09:58:27;-20661.06;;;41.97;29.09
7058;BME280;3570;43.080;25.628;2022-08-19T10:01:19;-20645.06;;;41.41;28.96
7058;BME280;3570;43.080;25.628;2022-08-19T10:04:04;-20625.47;;;40.71;29.52
7058;BME280;3570;43.080;25.628;2022-08-19T10:06:55;-20627.03;;;40.77;29.78
7058;BME280;3570;43.080;25.628;2022-08-19T10:09:39;-20618.69;;;40.47;29.25
7058;BME280;3570;43.080;25.628;2022-08-19T10:12:25;-20622.94;;;40.62;29.34
7058;BME280;3570;43.080;25.628;2022-08-19T10:15:09;-20631.59;;;40.93;28.72
7058;BME280;3570;43.080;25.628;2022-08-19T10:17:53;-20659.34;;;41.91;27.86
7058;BME280;3570;43.080;25.628;2022-08-19T10:20:37;-20660.34;;;41.95;27.75
7058;BME280;3570;43.080;25.628;2022-08-19T10:23:21;-20670.81;;;42.32;27.32
7058;BME280;3570;43.080;25.628;2022-08-19T10:26:06;-20684.81;;;42.82;26.18
7058;BME280;3570;43.080;25.628;2022-08-19T10:28:51;-20696.56;;;43.24;25.98
7058;BME280;3570;43.080;25.628;2022-08-19T10:31:35;-20726.34;;;44.30;24.52
7058;BME280;3570;43.080;25.628;2022-08-19T10:34:19;-20705.31;;;43.55;25.68
7058;BME280;3570;43.080;25.628;2022-08-19T10:37:04;-20691.19;;;43.05;26.13
7058;BME280;3570;43.080;25.628;2022-08-19T10:39:49;-20709.69;;;43.70;26.29
7058;BME280;3570;43.080;25.628;2022-08-19T10:42:34;-20712.09;;;43.79;25.76
7058;BME280;3570;43.080;25.628;2022-08-19T10:45:18;-20704.47;;;43.52;25.51
7058;BME280;3570;43.080;25.628;2022-08-19T10:48:05;-20710.13;;;43.72;26.12
7058;BME280;3570;43.080;25.628;2022-08-19T10:50:49;-20726.22;;;44.29;24.93
7058;BME280;3570;43.080;25.628;2022-08-19T10:53:53;-20729.03;;;44.39;24.49
7058;BME280;3570;43.080;25.628;2022-08-19T10:56:37;-20719.72;;;44.06;24.79
7058;BME280;3570;43.080;25.628;2022-08-19T10:59:47;-20715.22;;;43.90;25.07
7058;BME280;3570;43.080;25.628;2022-08-19T11:02:31;-20737.22;;;44.68;24.65
7058;BME280;3570;43.080;25.628;2022-08-19T11:05:17;-20788.50;;;46.52;22.68
7058;BME280;3570;43.080;25.628;2022-08-19T11:08:02;-20754.28;;;45.29;23.44
7058;BME280;3570;43.080;25.628;2022-08-19T11:10:46;-20783.59;;;46.34;22.33
7058;BME280;3570;43.080;25.628;2022-08-19T11:13:32;-20786.81;;;46.45;22.15
7058;BME280;3570;43.080;25.628;2022-08-19T11:16:19;-20795.97;;;46.78;21.80
7058;BME280;3570;43.080;25.628;2022-08-19T11:19:04;-20789.50;;;46.55;21.63
7058;BME280;3570;43.080;25.628;2022-08-19T11:21:48;-20784.84;;;46.38;21.74
7058;BME280;3570;43.080;25.628;2022-08-19T11:24:33;-20756.25;;;45.36;21.44
7058;BME280;3570;43.080;25.628;2022-08-19T11:27:17;-20673.78;;;42.43;24.72
7058;BME280;3570;43.080;25.628;2022-08-19T11:30:02;-20632.00;;;40.94;26.30
7058;BME280;3570;43.080;25.628;2022-08-19T11:32:47;-20658.66;;;41.89;25.75
7058;BME280;3570;43.080;25.628;2022-08-19T11:35:32;-20705.03;;;43.54;24.40
7058;BME280;3570;43.080;25.628;2022-08-19T11:38:17;-20738.34;;;44.72;22.65
7058;BME280;3570;43.080;25.628;2022-08-19T11:41:05;-20735.41;;;44.62;23.60
7058;BME280;3570;43.080;25.628;2022-08-19T11:43:53;-20737.09;;;44.68;24.03
7058;BME280;3570;43.080;25.628;2022-08-19T11:46:38;-20774.16;;;46.00;22.50
7058;BME280;3570;43.080;25.628;2022-08-19T11:49:23;-20708.16;;;43.65;24.64
7058;BME280;3570;43.080;25.628;2022-08-19T11:52:07;-20642.78;;;41.33;27.37
7058;BME280;3570;43.080;25.628;2022-08-19T11:54:51;-20603.34;;;39.93;28.76
7058;BME280;3570;43.080;25.628;2022-08-19T11:57:34;-20580.06;;;39.10;29.57
7058;BME280;3570;43.080;25.628;2022-08-19T12:00:19;-20603.34;;;39.93;28.81
7058;BME280;3570;43.080;25.628;2022-08-19T12:03:03;-20653.56;;;41.71;26.02
7058;BME280;3570;43.080;25.628;2022-08-19T12:05:48;-20674.06;;;42.44;25.23
7058;BME280;3570;43.080;25.628;2022-08-19T12:08:34;-20690.19;;;43.01;25.05
7058;BME280;3570;43.080;25.628;2022-08-19T12:11:18;-20717.34;;;43.98;23.27
7058;BME280;3570;43.080;25.628;2022-08-19T12:14:03;-20732.56;;;44.52;22.55
7058;BME280;3570;43.080;25.628;2022-08-19T12:16:47;-20774.00;;;46.00;20.36
7058;BME280;3570;43.080;25.628;2022-08-19T12:19:31;-20810.59;;;47.30;18.99
7058;BME280;3570;43.080;25.628;2022-08-19T12:22:17;-20809.31;;;47.26;19.31
7058;BME280;3570;43.080;25.628;2022-08-19T12:25:03;-20826.47;;;47.87;18.78
7058;BME280;3570;43.080;25.628;2022-08-19T12:27:47;-20826.75;;;47.88;19.35
7058;BME280;3570;43.080;25.628;2022-08-19T12:30:31;-20866.31;;;49.30;17.41
7058;BME280;3570;43.080;25.628;2022-08-19T12:33:15;-20850.63;;;48.74;18.33
7058;BME280;3570;43.080;25.628;2022-08-19T12:36:04;-20874.44;;;49.59;18.35
7058;BME280;3570;43.080;25.628;2022-08-19T12:38:49;-20862.09;;;49.15;19.25
7058;BME280;3570;43.080;25.628;2022-08-19T12:41:33;-20824.50;;;47.80;19.76
7058;BME280;3570;43.080;25.628;2022-08-19T12:44:18;-20792.16;;;46.65;21.30
7058;BME280;3570;43.080;25.628;2022-08-19T12:47:02;-20743.56;;;44.91;23.04
7058;BME280;3570;43.080;25.628;2022-08-19T12:49:48;-20772.47;;;45.94;21.34
7058;BME280;3570;43.080;25.628;2022-08-19T12:52:33;-20807.06;;;47.18;19.85
7058;BME280;3570;43.080;25.628;2022-08-19T12:55:17;-20825.22;;;47.83;19.55
7058;BME280;3570;43.080;25.628;2022-08-19T12:58:02;-20838.81;;;48.32;19.24
7058;BME280;3570;43.080;25.628;2022-08-19T13:00:46;-20862.81;;;49.18;18.87
7058;BME280;3570;43.080;25.628;2022-08-19T13:03:30;-20863.66;;;49.21;18.66
7058;BME280;3570;43.080;25.628;2022-08-19T13:06:14;-20890.25;;;50.16;18.22
7058;BME280;3570;43.080;25.628;2022-08-19T13:08:59;-20870.53;;;49.45;18.21
7058;BME280;3570;43.080;25.628;2022-08-19T13:11:43;-20858.03;;;49.00;19.00
7058;BME280;3570;43.080;25.628;2022-08-19T13:14:28;-20810.44;;;47.30;20.05
7058;BME280;3570;43.080;25.628;2022-08-19T13:17:16;-20733.00;;;44.53;21.98
7058;BME280;3570;43.080;25.628;2022-08-19T13:20:01;-20744.00;;;44.93;21.90
7058;BME280;3570;43.080;25.628;2022-08-19T13:22:46;-20694.84;;;43.18;23.08
7058;BME280;3570;43.080;25.628;2022-08-19T13:25:31;-20703.63;;;43.49;23.59
7058;BME280;3570;43.080;25.628;2022-08-19T13:28:16;-20762.31;;;45.58;21.63
7058;BME280;3570;43.080;25.628;2022-08-19T13:31:00;-20783.31;;;46.33;21.00
7058;BME280;3570;43.080;25.628;2022-08-19T13:34:03;-20837.13;;;48.26;19.67
7058;BME280;3570;43.080;25.628;2022-08-19T13:36:49;-20833.91;;;48.14;19.27
7058;BME280;3570;43.080;25.628;2022-08-19T13:39:34;-20853.28;;;48.83;19.20
7058;BME280;3570;43.080;25.628;2022-08-19T13:42:18;-20890.81;;;50.18;17.87
7058;BME280;3570;43.080;25.628;2022-08-19T13:45:03;-20897.13;;;50.41;17.35
7058;BME280;3570;43.080;25.628;2022-08-19T13:47:51;-20913.47;;;51.00;17.06
7058;BME280;3570;43.080;25.628;2022-08-19T13:50:42;-20902.56;;;50.60;17.53
7058;BME280;3570;43.080;25.628;2022-08-19T13:53:27;-20883.53;;;49.92;17.67
7058;BME280;3570;43.080;25.628;2022-08-19T13:56:14;-20899.22;;;50.48;17.33
7058;BME280;3570;43.080;25.628;2022-08-19T13:58:58;-20847.25;;;48.62;18.42
7058;BME280;3570;43.080;25.628;2022-08-19T14:01:42;-20802.88;;;47.03;19.63
7058;BME280;3570;43.080;25.628;2022-08-19T14:04:29;-20771.06;;;45.89;20.76
7058;BME280;3570;43.080;25.628;2022-08-19T14:07:12;-20823.38;;;47.76;19.16
7058;BME280;3570;43.080;25.628;2022-08-19T14:09:57;-20842.63;;;48.45;18.54
7058;BME280;3570;43.080;25.628;2022-08-19T14:12:41;-20797.09;;;46.82;19.77
7058;BME280;3570;43.080;25.628;2022-08-19T14:15:26;-20822.53;;;47.73;19.40
7058;BME280;3570;43.080;25.628;2022-08-19T14:18:10;-20867.44;;;49.34;18.50
7058;BME280;3570;43.080;25.628;2022-08-19T14:20:54;-20871.91;;;49.50;17.57
7058;BME280;3570;43.080;25.628;2022-08-19T14:23:39;-20828.56;;;47.95;19.47
7058;BME280;3570;43.080;25.628;2022-08-19T14:26:23;-20816.91;;;47.53;19.39
7058;BME280;3570;43.080;25.628;2022-08-19T14:29:07;-20858.75;;;49.03;18.59
7058;BME280;3570;43.080;25.628;2022-08-19T14:31:51;-20887.31;;;50.06;17.29
7058;BME280;3570;43.080;25.628;2022-08-19T14:34:35;-20837.69;;;48.28;18.50
7058;BME280;3570;43.080;25.628;2022-08-19T14:37:21;-20786.25;;;46.43;19.90
7058;BME280;3570;43.080;25.628;2022-08-19T14:40:06;-20757.66;;;45.41;21.02
7058;BME280;3570;43.080;25.628;2022-08-19T14:42:52;-20746.81;;;45.03;20.94